• Join FlightAware (Why Join?)
  • Login
  • US Flag 
12:48AM EST


 

Airport Tracker/Info


-or-


 

Live Flight TrackerFlight Track Log ✈ GLA10 ✈ 30-Apr-2013 ✈ KMSP - KCYS

Flight Track Log - Related Links

Times and Time Zones

All times are in EDT time to prevent confusion due to time zone crossing. See the GLA10 flight status page for this flight to view local times or setup timezone preferences in your user account.

Time Position Orientation Groundspeed Altitude Reporting Facility
EDT Latitude Longitude Course Direction KTS MPH feet Rate Location/Type
01:00PM 44.8833 -93.3000 279° West 179 206 3,600  Level Minneapolis TRACON
01:00PM 44.8856 -93.3189 279° West 179 206 4,500 1,680 Climbing Minneapolis Center
01:02PM 44.8514 -93.3675 225° Southwest 185 213 6,100 1,500 Climbing Minneapolis Center
01:03PM 44.8122 -93.4100 218° Southwest 181 208 7,700 1,620 Climbing Minneapolis Center
01:04PM 44.7767 -93.4750 232° Southwest 179 206 9,500 1,620 Climbing Minneapolis Center
01:05PM 44.7481 -93.5283 233° Southwest 172 198 11,100 1,140 Climbing Minneapolis Center
01:06PM 44.7222 -93.5819 236° Southwest 167 192 11,900 420 Climbing Minneapolis Center
01:07PM 44.6933 -93.6411 236° Southwest 180 207 12,000  Climbing Minneapolis Center
01:08PM 44.6672 -93.6944 235° Southwest 167 192 12,000  Level Minneapolis Center
01:09PM 44.6419 -93.7453 235° Southwest 159 183 12,000 300 Level Minneapolis Center
01:10PM 44.6119 -93.8056 235° Southwest 163 188 12,700 1,020 Climbing Minneapolis Center
01:11PM 44.5836 -93.8539 231° Southwest 164 189 14,100 1,320 Climbing Minneapolis Center
01:12PM 44.5542 -93.9022 229° Southwest 163 188 15,500 1,080 Climbing Minneapolis Center
01:13PM 44.5283 -93.9533 235° Southwest 161 185 16,400 780 Climbing Minneapolis Center
01:14PM 44.5017 -94.0047 234° Southwest 164 189 17,200 960 Climbing Minneapolis Center
01:15PM 44.4747 -94.0531 232° Southwest 160 184 18,500 1,020 Climbing Minneapolis Center
01:16PM 44.4417 -94.1075 230° Southwest 155 178 19,400 840 Climbing Minneapolis Center
01:17PM 44.4161 -94.1578 235° Southwest 158 182 20,300 720 Climbing Minneapolis Center
01:18PM 44.3897 -94.2047 232° Southwest 156 180 21,000 660 Climbing Minneapolis Center
01:19PM 44.3622 -94.2547 232° Southwest 160 184 21,700 660 Climbing Minneapolis Center
01:20PM 44.3347 -94.3033 232° Southwest 159 183 22,400 780 Climbing Minneapolis Center
01:21PM 44.3103 -94.3519 235° Southwest 155 178 23,300 720 Climbing Minneapolis Center
01:22PM 44.2789 -94.4081 232° Southwest 153 176 23,900 300 Climbing Minneapolis Center
01:23PM 44.2397 -94.4717 229° Southwest 175 201 24,000  Climbing Minneapolis Center
01:25PM 44.2058 -94.5358 234° Southwest 201 231 24,000  Level Minneapolis Center
01:26PM 44.1667 -94.6136 235° Southwest 204 235 24,000  Level Minneapolis Center
01:27PM 44.1322 -94.6828 235° Southwest 206 237 24,000  Level Minneapolis Center
01:28PM 44.0964 -94.7583 237° Southwest 199 229 24,000  Level Minneapolis Center
01:29PM 44.0653 -94.8217 236° Southwest 197 227 24,000  Level Minneapolis Center
01:30PM 44.0303 -94.8958 237° Southwest 193 222 24,000  Level Minneapolis Center
01:31PM 43.9989 -94.9575 235° Southwest 194 223 24,000  Level Minneapolis Center
01:32PM 43.9664 -95.0181 233° Southwest 194 223 24,000  Level Minneapolis Center
01:33PM 43.9342 -95.0792 234° Southwest 196 226 24,000  Level Minneapolis Center
01:34PM 43.9000 -95.1383 231° Southwest 196 226 24,000  Level Minneapolis Center
01:35PM 43.8644 -95.1978 230° Southwest 199 229 24,000  Level Minneapolis Center
01:36PM 43.8303 -95.2567 231° Southwest 197 227 24,000  Level Minneapolis Center
01:37PM 43.7858 -95.3239 228° Southwest 198 228 24,000  Level Minneapolis Center
01:38PM 43.7553 -95.3872 236° Southwest 197 227 24,000  Level Minneapolis Center
01:39PM 43.7292 -95.4531 241° Southwest 195 224 24,000  Level Minneapolis Center
01:40PM 43.7064 -95.5219 245° Southwest 197 227 24,000  Level Minneapolis Center
01:41PM 43.6872 -95.5925 249° West 198 228 24,000  Level Minneapolis Center
01:42PM 43.6739 -95.6644 256° West 194 223 24,000  Level Minneapolis Center
01:43PM 43.6603 -95.7372 256° West 196 226 24,000  Level Minneapolis Center
01:44PM 43.6403 -95.8283 253° West 205 236 24,000  Level Minneapolis Center
01:45PM 43.6233 -95.9075 254° West 214 246 24,000  Level Minneapolis Center
01:46PM 43.6053 -95.9867 253° West 217 250 24,000  Level Minneapolis Center
01:47PM 43.5900 -96.0667 255° West 215 247 24,000  Level Minneapolis Center
01:49PM 43.5756 -96.1458 256° West 214 246 24,000  Level Minneapolis Center
01:50PM 43.5606 -96.2256 255° West 214 246 24,000  Level Minneapolis Center
01:51PM 43.5453 -96.3044 255° West 214 246 24,000  Level Minneapolis Center
01:52PM 43.5292 -96.3831 254° West 213 245 24,000  Level Minneapolis Center
01:53PM 43.5106 -96.4786 255° West 214 246 24,000  Level Minneapolis Center
01:54PM 43.4953 -96.5581 255° West 215 247 24,000  Level Minneapolis Center
01:55PM 43.4792 -96.6383 255° West 216 249 24,000  Level Minneapolis Center
01:56PM 43.4628 -96.7183 254° West 217 250 24,000  Level Minneapolis Center
01:57PM 43.4472 -96.8000 255° West 220 253 24,000  Level Minneapolis Center
01:58PM 43.4331 -96.8756 256° West 208 239 24,000 -60 Level Minneapolis Center
01:59PM 43.4208 -96.9511 257° West 202 232 23,900  Descending Minneapolis Center
02:00PM 43.3978 -97.0361 250° West 200 230 24,000  Climbing Minneapolis Center
02:01PM 43.3781 -97.1069 249° West 198 228 24,000  Level Minneapolis Center
02:02PM 43.3592 -97.1767 250° West 197 227 24,000  Level Minneapolis Center
02:03PM 43.3403 -97.2478 250° West 197 227 24,000  Level Minneapolis Center
02:04PM 43.3214 -97.3194 250° West 198 228 24,000  Level Minneapolis Center
02:05PM 43.3031 -97.3892 250° West 196 226 24,000  Level Minneapolis Center
02:06PM 43.2828 -97.4589 248° West 197 227 24,000  Level Minneapolis Center
02:07PM 43.2606 -97.5439 250° West 198 228 24,000  Level Minneapolis Center
02:08PM 43.2428 -97.6172 252° West 201 231 24,000  Level Minneapolis Center
02:09PM 43.2200 -97.7086 251° West 208 239 24,000  Level Minneapolis Center
02:10PM 43.1967 -97.7844 247° West 214 246 24,000  Level Minneapolis Center
02:11PM 43.1739 -97.8636 248° West 221 254 24,000  Level Minneapolis Center
02:12PM 43.1511 -97.9403 248° West 218 251 24,000  Level Minneapolis Center
02:13PM 43.1289 -98.0197 249° West 222 255 24,000  Level Minneapolis Center
02:14PM 43.1019 -98.1156 249° West 226 260 24,000  Level Minneapolis Center
02:15PM 43.0789 -98.1950 248° West 225 259 24,000  Level Minneapolis Center
02:17PM 43.0606 -98.2728 252° West 217 250 24,000  Level Minneapolis Center
02:18PM 43.0403 -98.3508 250° West 218 251 24,000  Level Minneapolis Center
02:19PM 43.0206 -98.4281 251° West 217 250 24,000  Level Minneapolis Center
02:20PM 43.0008 -98.5072 251° West 219 252 24,000  Level Minneapolis Center
02:21PM 42.9781 -98.5853 248° West 220 253 24,000  Level Minneapolis Center
02:22PM 42.9514 -98.6753 248° West 216 249 24,000  Level Minneapolis Center
02:23PM 42.9331 -98.7528 252° West 215 247 24,000  Level Minneapolis Center
02:24PM 42.9175 -98.8150 251° West 218 251 24,000  Level Minneapolis Center
02:25PM 42.8928 -98.9067 250° West 217 250 24,000  Level Minneapolis Center
02:26PM 42.8714 -98.9858 250° West 216 249 24,000  Level Minneapolis Center
02:27PM 42.8525 -99.0661 252° West 219 252 24,000  Level Minneapolis Center
02:28PM 42.8317 -99.1428 250° West 217 250 24,000  Level Minneapolis Center
02:29PM 42.8128 -99.2208 252° West 218 251 24,000  Level Minneapolis Center
02:30PM 42.7897 -99.3158 252° West 221 254 24,100  Climbing Minneapolis Center
02:31PM 42.7669 -99.3928 248° West 219 252 24,000 -60 Descending Minneapolis Center
02:32PM 42.7458 -99.4711 250° West 220 253 24,000  Level Minneapolis Center
02:33PM 42.7247 -99.5489 250° West 220 253 24,000  Level Minneapolis Center
02:34PM 42.7050 -99.6275 251° West 219 252 24,000  Level Minneapolis Center
02:35PM 42.6861 -99.7053 252° West 219 252 24,000  Level Minneapolis Center
02:36PM 42.6653 -99.7811 250° West 218 251 24,000  Level Denver Center
02:37PM 42.6442 -99.8594 250° West 221 254 24,000  Level Denver Center
02:38PM 42.6244 -99.9353 251° West 215 247 24,000  Level Denver Center
02:39PM 42.6028 -100.0119 249° West 214 246 24,000  Level Denver Center
02:40PM 42.5772 -100.1114 251° West 218 251 24,000  Level Denver Center
02:41PM 42.5547 -100.1956 250° West 214 246 24,000  Level Denver Center
02:42PM 42.5358 -100.2678 250° West 212 244 24,000  Level Denver Center
02:43PM 42.5136 -100.3542 251° West 217 250 24,000  Level Denver Center
02:44PM 42.4950 -100.4267 251° West 215 247 24,000  Level Denver Center
02:45PM 42.4753 -100.4992 250° West 214 246 24,000  Level Denver Center
02:46PM 42.4519 -100.5836 249° West 215 247 24,000  Level Denver Center
02:48PM 42.4317 -100.6533 249° West 211 243 24,000  Level Denver Center
02:49PM 42.4083 -100.7381 250° West 213 245 24,000  Level Denver Center
02:50PM 42.3886 -100.8086 249° West 211 243 24,000  Level Denver Center
02:51PM 42.3672 -100.8917 251° West 210 242 24,000  Level Denver Center
02:52PM 42.3489 -100.9650 251° West 214 246 24,000  Level Denver Center
02:53PM 42.3322 -101.0381 253° West 212 244 24,000  Level Denver Center
02:54PM 42.3106 -101.1211 251° West 211 243 24,000  Level Denver Center
02:55PM 42.2933 -101.1933 252° West 214 246 24,000  Level Denver Center
02:56PM 42.2742 -101.2764 253° West 209 241 24,000  Level Denver Center
02:57PM 42.2575 -101.3483 253° West 210 242 24,000  Level Denver Center
02:58PM 42.2444 -101.4075 253° West 208 239 24,000  Level Denver Center
02:59PM 42.2233 -101.5067 254° West 218 251 24,000  Level Denver Center
03:00PM 42.2011 -101.5808 248° West 194 223 24,000  Level Denver Center
03:01PM 42.1808 -101.6428 246° West 190 219 24,000  Level Denver Center
03:02PM 42.1611 -101.7044 247° West 188 216 24,000  Level Denver Center
03:03PM 42.1378 -101.7786 247° West 191 220 24,000  Level Denver Center
03:04PM 42.1186 -101.8417 248° West 191 220 24,000  Level Denver Center
03:05PM 42.0956 -101.9164 247° West 193 222 24,000  Level Denver Center
03:06PM 42.0706 -101.9775 241° Southwest 193 222 24,000  Level Denver Center
03:07PM 42.0408 -102.0492 241° Southwest 196 226 24,000  Level Denver Center
03:08PM 42.0144 -102.1089 239° Southwest 195 224 24,000  Level Denver Center
03:09PM 41.9928 -102.1581 239° Southwest 193 222 24,000  Level Denver Center
03:10PM 41.9589 -102.2381 240° Southwest 194 223 24,000  Level Denver Center
03:11PM 41.9278 -102.2986 235° Southwest 197 227 24,000  Level Denver Center
03:12PM 41.8986 -102.3719 242° Southwest 200 230 24,000  Level Denver Center
03:13PM 41.8706 -102.4325 238° Southwest 199 229 24,000  Level Denver Center
03:14PM 41.8417 -102.5036 241° Southwest 197 227 24,000  Level Denver Center
03:15PM 41.8203 -102.5675 246° West 198 228 24,000  Level Denver Center
03:16PM 41.8019 -102.6319 249° West 196 226 24,000  Level Denver Center
03:17PM 41.7772 -102.7036 245° Southwest 191 220 24,000  Level Denver Center
03:18PM 41.7508 -102.7642 240° Southwest 194 223 24,000  Level Denver Center
03:19PM 41.7189 -102.8328 238° Southwest 194 223 24,000  Level Denver Center
03:20PM 41.6914 -102.8919 238° Southwest 195 224 24,000  Level Denver Center
03:22PM 41.6569 -102.9717 240° Southwest 194 223 24,000  Level Denver Center
03:23PM 41.6333 -103.0333 243° Southwest 195 224 24,000  Level Denver Center
03:24PM 41.6108 -103.1072 248° West 193 222 24,000  Level Denver Center
03:25PM 41.5950 -103.1742 252° West 195 224 24,000  Level Denver Center
03:26PM 41.5811 -103.2517 257° West 193 222 24,000  Level Denver Center
03:27PM 41.5667 -103.3178 254° West 194 223 24,000  Level Denver Center
03:28PM 41.5483 -103.3825 249° West 194 223 24,000  Level Denver Center
03:29PM 41.5289 -103.4575 251° West 193 222 24,000 -300 Level Denver Center
03:30PM 41.5092 -103.5194 247° West 190 219 23,400 -720 Descending Denver Center
03:31PM 41.4856 -103.5928 247° West 192 221 22,600 -960 Descending Denver Center
03:32PM 41.4628 -103.6561 244° Southwest 195 224 21,500 -1,140 Descending Denver Center
03:33PM 41.4372 -103.7328 246° West 200 230 20,300 -1,200 Descending Denver Center
03:34PM 41.4219 -103.7994 253° West 199 229 19,100 -1,260 Descending Denver Center
03:35PM 41.4081 -103.8711 256° West 206 237 17,800 -1,620 Descending Denver Center
03:36PM 41.3942 -103.9594 258° West 215 247 15,800 -1,740 Descending Denver Center
03:37PM 41.3794 -104.0383 256° West 222 255 14,300 -1,260 Descending Denver Center
03:38PM 41.3639 -104.1250 257° West 221 254 13,300 -600 Descending Denver Center
03:39PM 41.3531 -104.1908 258° West 211 243 13,000 -300 Descending Denver Center
03:41PM 41.2953 -104.2515 251° West  Level FlightAware Approximate
03:48PM 41.1624 -104.7535 251° West  Level FlightAware Approximate
03:49PM 41.1500 -104.8000 251° West  Level FlightAware Approximate
03:50PM 41.1556 -104.8105 251° West  Level Estimated
03:51PM 41.1556 -104.8105 251° West  Level Estimated
03:52PM 41.1556 -104.8105 251° West  Level Estimated
03:53PM 41.1556 -104.8105 251° West  Level Estimated
03:54PM 41.1556 -104.8105 251° West  Level Estimated
03:55PM 41.1556 -104.8105 251° West  Level Estimated
03:56PM 41.1556 -104.8105 251° West  Level Estimated
03:57PM 41.1556 -104.8105 251° West  Level Estimated